createdAt,value
2022-08-22T00:02:26.244Z,97954.69
2022-08-22T00:02:46.585Z,97845.34
2022-08-22T00:03:02.740Z,97865.16
2022-08-22T00:03:04.030Z,97849.91
2022-08-22T00:05:02.800Z,97956.00
2022-08-22T00:07:49.256Z,97961.78
2022-08-22T00:10:25.655Z,97964.69
2022-08-22T00:12:58.316Z,97966.56
2022-08-22T00:15:43.334Z,97962.81
2022-08-22T00:18:16.318Z,97964.47
2022-08-22T00:20:49.559Z,97966.22
2022-08-22T00:23:22.938Z,97965.19
2022-08-22T00:25:58.806Z,97960.13
2022-08-22T00:28:32.153Z,97964.47
2022-08-22T00:31:08.072Z,97965.88
2022-08-22T00:33:42.402Z,97963.75
2022-08-22T00:36:19.285Z,97967.06
2022-08-22T00:38:52.382Z,97971.56
2022-08-22T00:41:38.826Z,97969.25
2022-08-22T00:44:30.780Z,97962.63
2022-08-22T00:47:19.876Z,97955.56
2022-08-22T00:50:19.405Z,97950.59
2022-08-22T00:53:03.488Z,97959.34
2022-08-22T00:55:47.275Z,97954.72
2022-08-22T00:58:41.677Z,97951.78
2022-08-22T01:01:11.763Z,97960.13
2022-08-22T01:04:13.470Z,97957.19
2022-08-22T01:06:48.449Z,97966.44
2022-08-22T01:09:36.373Z,97959.94
2022-08-22T01:12:27.673Z,97959.94
2022-08-22T01:15:00.890Z,97960.72
2022-08-22T01:17:54.220Z,97961.19
2022-08-22T01:20:52.474Z,97973.34
2022-08-22T01:23:58.483Z,97967.44
2022-08-22T01:26:51.084Z,97967.88
2022-08-22T01:30:03.049Z,97973.22
2022-08-22T01:32:58.757Z,97971.38
2022-08-22T01:35:50.605Z,97976.41
2022-08-22T01:38:38.225Z,97978.59
2022-08-22T01:41:33.009Z,97970.91
2022-08-22T01:44:22.641Z,97974.75
2022-08-22T01:46:58.557Z,97977.31
2022-08-22T01:49:31.554Z,97961.59
2022-08-22T01:52:08.001Z,97973.16
2022-08-22T01:54:46.468Z,97970.72
2022-08-22T01:57:14.582Z,97967.19
2022-08-22T01:59:44.482Z,97973.50
2022-08-22T02:02:35.004Z,97971.69
2022-08-22T02:05:09.209Z,97972.44
2022-08-22T02:07:48.158Z,97964.91
2022-08-22T02:10:21.328Z,97964.91
2022-08-22T02:12:57.165Z,97964.13
2022-08-22T02:15:33.499Z,97966.25
2022-08-22T02:18:14.478Z,97965.31
2022-08-22T02:20:57.403Z,97965.78
2022-08-22T02:23:35.865Z,97958.53
2022-08-22T02:26:08.282Z,97964.06
2022-08-22T02:28:57.136Z,97966.09
2022-08-22T02:31:37.174Z,97966.13
2022-08-22T02:34:32.113Z,97958.78
2022-08-22T02:37:09.032Z,97963.84
2022-08-22T02:39:42.490Z,97963.44
2022-08-22T02:42:17.861Z,97962.84
2022-08-22T02:44:56.529Z,97966.44
2022-08-22T02:47:32.725Z,97959.53
2022-08-22T02:50:12.719Z,97953.72
2022-08-22T02:52:52.633Z,97947.09
2022-08-22T02:55:33.532Z,97953.72
2022-08-22T02:58:06.801Z,97951.88
2022-08-22T03:00:47.353Z,97959.06
2022-08-22T03:03:19.459Z,97958.00
2022-08-22T03:05:52.229Z,97958.47
2022-08-22T03:08:24.247Z,97955.66
2022-08-22T03:11:06.182Z,97963.69
2022-08-22T03:13:47.801Z,97962.06
2022-08-22T03:16:23.366Z,97970.50
2022-08-22T03:18:59.118Z,97968.25
2022-08-22T03:21:33.921Z,97975.81
2022-08-22T03:24:08.029Z,97976.78
2022-08-22T03:26:45.105Z,97975.72
2022-08-22T03:29:18.906Z,97975.44
2022-08-22T03:32:12.772Z,97976.47
2022-08-22T03:34:55.221Z,97976.97
2022-08-22T03:37:27.934Z,97979.69
2022-08-22T03:40:01.269Z,97988.22
2022-08-22T03:43:04.602Z,97982.91
2022-08-22T03:46:18.303Z,97983.63
2022-08-22T03:49:31.562Z,97993.72
2022-08-22T03:52:24.437Z,97996.13
2022-08-22T03:55:15.746Z,98000.88
2022-08-22T03:58:27.452Z,98007.44
2022-08-22T04:01:31.762Z,98008.44
2022-08-22T04:04:42.435Z,98018.00
2022-08-22T04:07:52.519Z,98022.72
2022-08-22T04:10:40.004Z,98025.06
2022-08-22T04:13:29.958Z,98017.50
2022-08-22T04:16:44.877Z,98010.88
2022-08-22T04:19:32.912Z,98010.97
2022-08-22T04:22:20.089Z,98018.41
2022-08-22T04:24:57.941Z,98014.72
2022-08-22T04:27:31.645Z,98012.59
2022-08-22T04:30:06.077Z,98025.16
2022-08-22T04:32:38.417Z,98025.66
2022-08-22T04:35:11.278Z,98023.13
2022-08-22T04:37:46.954Z,98019.97
2022-08-22T04:40:22.320Z,98021.59
2022-08-22T04:42:54.097Z,98021.38
2022-08-22T04:45:27.417Z,98012.50
2022-08-22T04:48:04.926Z,98024.84
2022-08-22T04:50:43.121Z,98019.16
2022-08-22T04:53:23.512Z,98025.16
2022-08-22T04:56:05.368Z,98025.06
2022-08-22T04:58:44.907Z,98018.72
2022-08-22T05:01:17.817Z,98022.28
2022-08-22T05:03:52.976Z,98028.06
2022-08-22T05:06:23.570Z,98030.13
2022-08-22T05:08:53.779Z,98033.00
2022-08-22T05:11:23.771Z,98032.84
2022-08-22T05:13:55.365Z,98035.63
2022-08-22T05:16:28.463Z,98039.00
2022-08-22T05:19:02.965Z,98035.53
2022-08-22T05:21:34.176Z,98034.16
2022-08-22T05:24:05.365Z,98052.97
2022-08-22T05:26:38.098Z,98046.06
2022-08-22T05:29:10.995Z,98044.81
2022-08-22T05:31:43.739Z,98048.53
2022-08-22T05:34:17.245Z,98042.00
2022-08-22T05:36:49.910Z,98043.47
2022-08-22T05:39:20.481Z,98045.53
2022-08-22T05:41:49.285Z,98053.41
2022-08-22T05:44:21.957Z,98060.69
2022-08-22T05:46:53.937Z,98065.63
2022-08-22T05:49:29.983Z,98071.31
2022-08-22T05:52:14.966Z,98068.22
2022-08-22T05:54:51.254Z,98071.91
2022-08-22T05:57:26.498Z,98078.13
2022-08-22T06:00:01.302Z,98082.38
2022-08-22T06:02:34.857Z,98085.31
2022-08-22T06:05:11.719Z,98077.56
2022-08-22T06:07:43.740Z,98084.03
2022-08-22T06:10:23.010Z,98088.88
2022-08-22T06:12:58.125Z,98085.34
2022-08-22T06:15:34.697Z,98089.06
2022-08-22T06:18:07.439Z,98092.75
2022-08-22T06:20:39.745Z,98090.38
2022-08-22T06:23:08.458Z,98083.00
2022-08-22T06:25:39.093Z,98075.53
2022-08-22T06:28:08.881Z,98081.47
2022-08-22T06:30:39.600Z,98077.75
2022-08-22T06:33:12.516Z,98069.84
2022-08-22T06:36:03.035Z,98073.19
2022-08-22T06:38:35.061Z,98070.41
2022-08-22T06:41:06.853Z,98076.59
2022-08-22T06:43:38.731Z,98081.25
2022-08-22T06:46:06.729Z,98077.47
2022-08-22T06:48:36.269Z,98081.31
2022-08-22T06:51:08.747Z,98087.84
2022-08-22T06:53:47.953Z,98085.97
2022-08-22T06:56:20.324Z,98086.09
2022-08-22T06:58:50.508Z,98085.47
2022-08-22T07:01:22.395Z,98078.34
2022-08-22T07:03:52.713Z,98079.34
2022-08-22T07:06:29.874Z,98073.91
2022-08-22T07:08:57.885Z,98079.81
2022-08-22T07:11:28.541Z,98085.22
2022-08-22T07:13:59.789Z,98086.47
2022-08-22T07:16:33.132Z,98078.28
2022-08-22T07:19:01.858Z,98079.19
2022-08-22T07:21:41.326Z,98079.97
2022-08-22T07:24:11.094Z,98078.09
2022-08-22T07:26:48.015Z,98086.28
2022-08-22T07:29:24.310Z,98086.16
2022-08-22T07:32:04.486Z,98079.44
2022-08-22T07:34:43.461Z,98079.38
2022-08-22T07:37:17.773Z,98082.59
2022-08-22T07:39:53.723Z,98080.56
2022-08-22T07:42:28.549Z,98083.16
2022-08-22T07:45:07.550Z,98073.31
2022-08-22T07:47:55.942Z,98067.25
2022-08-22T07:50:29.365Z,98074.09
2022-08-22T07:53:09.248Z,98063.66
2022-08-22T07:55:48.375Z,98072.06
2022-08-22T07:58:18.400Z,98055.69
2022-08-22T08:00:47.198Z,98057.78
2022-08-22T08:03:15.239Z,98062.66
2022-08-22T08:05:44.873Z,98065.75
2022-08-22T08:08:22.325Z,98062.00
2022-08-22T08:10:51.615Z,98070.41
2022-08-22T08:13:28.119Z,98061.59
2022-08-22T08:15:55.438Z,98065.03
2022-08-22T08:18:26.028Z,98063.53
2022-08-22T08:20:57.034Z,98055.91
2022-08-22T08:23:29.241Z,98065.06
2022-08-22T08:26:02.827Z,98065.00
2022-08-22T08:28:37.738Z,98068.31
2022-08-22T08:31:20.625Z,98067.22
2022-08-22T08:33:50.298Z,98060.50
2022-08-22T08:36:33.418Z,98055.56
2022-08-22T08:39:12.684Z,98054.47
2022-08-22T08:42:04.198Z,98055.56
2022-08-22T08:45:10.048Z,98064.78
2022-08-22T08:47:49.134Z,98067.84
2022-08-22T08:50:30.201Z,98055.47
2022-08-22T08:53:19.420Z,98052.47
2022-08-22T08:55:58.538Z,98055.75
2022-08-22T08:58:43.402Z,98054.38
2022-08-22T09:01:38.936Z,98045.41
2022-08-22T09:04:34.817Z,98049.03
2022-08-22T09:07:28.073Z,98051.13
2022-08-22T09:10:18.921Z,98043.72
2022-08-22T09:13:12.258Z,98034.53
2022-08-22T09:16:11.954Z,98036.66
2022-08-22T09:19:01.337Z,98041.75
2022-08-22T09:21:50.922Z,98032.31
2022-08-22T09:24:42.627Z,98028.09
2022-08-22T09:27:17.449Z,98028.16
2022-08-22T09:29:54.923Z,98030.09
2022-08-22T09:32:36.193Z,98024.31
2022-08-22T09:35:09.082Z,98024.63
2022-08-22T09:37:46.569Z,98019.16
2022-08-22T09:42:59.366Z,98013.34
2022-08-22T09:45:50.843Z,98018.03
2022-08-22T09:48:42.494Z,98008.03
2022-08-22T09:51:33.167Z,98012.50
2022-08-22T09:54:20.850Z,98009.47
2022-08-22T09:56:56.975Z,98014.44
2022-08-22T09:59:34.431Z,98009.16
2022-08-22T10:02:15.477Z,98003.69
2022-08-22T10:04:47.632Z,98008.94
2022-08-22T10:07:32.318Z,97996.50
2022-08-22T10:10:08.887Z,97999.03
2022-08-22T10:12:47.777Z,97999.81
2022-08-22T10:15:22.557Z,97997.31
2022-08-22T10:18:14.718Z,97997.53
2022-08-22T10:20:50.849Z,97986.31
2022-08-22T10:23:23.345Z,97983.53
2022-08-22T10:25:54.930Z,97990.94
2022-08-22T10:28:32.317Z,97986.63
2022-08-22T10:31:22.574Z,97985.31
2022-08-22T10:34:01.022Z,97982.84
2022-08-22T10:36:36.078Z,97980.19
2022-08-22T10:39:09.531Z,97982.34
2022-08-22T10:41:54.721Z,97984.31
2022-08-22T10:44:30.039Z,97974.72
2022-08-22T10:47:04.102Z,97970.09
2022-08-22T10:49:37.633Z,97971.69
2022-08-22T10:52:15.355Z,97966.56
2022-08-22T10:54:48.865Z,97966.75
2022-08-22T10:57:33.077Z,97959.22
2022-08-22T11:00:09.137Z,97964.63
2022-08-22T11:02:44.902Z,97963.16
2022-08-22T11:05:38.065Z,97956.69
2022-08-22T11:08:33.084Z,97948.47
2022-08-22T11:11:09.332Z,97950.16
2022-08-22T11:13:43.580Z,97955.97
2022-08-22T11:16:17.352Z,97951.81
2022-08-22T11:19:14.950Z,97946.50
2022-08-22T11:21:59.649Z,97935.84
2022-08-22T11:25:11.395Z,97930.88
2022-08-22T11:27:48.295Z,97933.13
2022-08-22T11:30:20.601Z,97922.06
2022-08-22T11:33:13.752Z,97930.47
2022-08-22T11:35:47.334Z,97924.28
2022-08-22T11:38:30.591Z,97925.00
2022-08-22T11:41:05.634Z,97918.84
2022-08-22T11:43:43.753Z,97912.03
2022-08-22T11:46:29.693Z,97916.31
2022-08-22T11:49:09.176Z,97914.47
2022-08-22T11:51:57.386Z,97909.88
2022-08-22T11:54:33.408Z,97913.69
2022-08-22T11:57:06.670Z,97912.09
2022-08-22T11:59:55.245Z,97903.34
2022-08-22T12:02:31.233Z,97899.47
2022-08-22T12:05:07.072Z,97898.28
2022-08-22T12:07:39.732Z,97897.56
2022-08-22T12:10:13.482Z,97890.78
2022-08-22T12:12:51.552Z,97898.44
2022-08-22T12:15:22.513Z,97888.47
2022-08-22T12:18:20.142Z,97891.06
2022-08-22T12:21:17.408Z,97883.03
2022-08-22T12:24:19.301Z,97880.34
2022-08-22T12:27:13.548Z,97878.41
2022-08-22T12:30:05.479Z,97871.69
2022-08-22T12:33:23.186Z,97869.03
2022-08-22T12:36:04.813Z,97872.84
2022-08-22T12:38:46.762Z,97879.34
2022-08-22T12:41:46.837Z,97863.34
2022-08-22T12:44:28.291Z,97862.56
2022-08-22T12:47:19.134Z,97854.88
2022-08-22T12:50:04.059Z,97858.25
2022-08-22T12:52:46.081Z,97859.78
2022-08-22T12:55:55.125Z,97851.03
2022-08-22T12:58:34.560Z,97845.31
2022-08-22T13:01:07.146Z,97857.16
2022-08-22T13:03:40.428Z,97852.63
2022-08-22T13:06:42.203Z,97856.88
2022-08-22T13:09:20.838Z,97853.84
2022-08-22T13:12:00.697Z,97849.22
2022-08-22T13:14:34.101Z,97854.16
2022-08-22T13:17:10.292Z,97857.13
2022-08-22T13:20:02.062Z,97848.69
2022-08-22T13:22:32.997Z,97843.69
2022-08-22T13:25:05.040Z,97851.25
2022-08-22T13:27:40.780Z,97853.19
2022-08-22T13:30:21.123Z,97852.78
2022-08-22T13:32:53.541Z,97859.25
2022-08-22T13:35:24.759Z,97862.25
2022-08-22T13:37:55.336Z,97850.75
2022-08-22T13:40:30.256Z,97850.91
2022-08-22T13:43:05.726Z,97855.56
2022-08-22T13:45:36.220Z,97855.03
2022-08-22T13:48:12.885Z,97849.97
2022-08-22T13:50:54.715Z,97861.66
2022-08-22T13:53:29.423Z,97856.81
2022-08-22T13:56:03.218Z,97859.19
2022-08-22T13:58:38.374Z,97853.56
2022-08-22T14:01:43.301Z,97849.09
2022-08-22T14:04:32.133Z,97853.63
2022-08-22T14:07:24.244Z,97850.94
2022-08-22T14:09:56.104Z,97854.75
2022-08-22T14:12:26.221Z,97853.22
2022-08-22T14:14:57.098Z,97856.63
2022-08-22T14:17:30.834Z,97862.72
2022-08-22T14:20:06.928Z,97870.31
2022-08-22T14:22:40.933Z,97864.94
2022-08-22T14:25:17.005Z,97864.50
2022-08-22T14:27:59.323Z,97859.13
2022-08-22T14:30:31.708Z,97861.66
2022-08-22T14:33:11.958Z,97866.50
2022-08-22T14:35:52.941Z,97859.94
2022-08-22T14:38:29.811Z,97870.84
2022-08-22T14:41:05.481Z,97868.09
2022-08-22T14:43:55.215Z,97864.28
2022-08-22T14:46:27.522Z,97865.00
2022-08-22T14:49:24.861Z,97860.69
2022-08-22T14:52:00.210Z,97864.75
2022-08-22T14:54:29.356Z,97858.19
2022-08-22T14:56:59.441Z,97863.81
2022-08-22T14:59:39.134Z,97866.78
2022-08-22T15:02:09.632Z,97869.69
2022-08-22T15:04:40.302Z,97870.06
2022-08-22T15:07:12.947Z,97868.47
2022-08-22T15:09:43.961Z,97862.34
2022-08-22T15:12:23.780Z,97863.84
2022-08-22T15:14:54.709Z,97855.81
2022-08-22T15:17:35.831Z,97862.22
2022-08-22T15:20:11.181Z,97858.69
2022-08-22T15:22:45.591Z,97861.31
2022-08-22T15:25:16.658Z,97854.44
2022-08-22T15:27:48.804Z,97855.13
2022-08-22T15:30:20.423Z,97854.31
2022-08-22T15:32:49.187Z,97866.34
2022-08-22T15:35:27.802Z,97860.22
2022-08-22T15:38:02.476Z,97871.16
2022-08-22T15:40:40.401Z,97866.50
2022-08-22T15:43:34.901Z,97862.31
2022-08-22T15:46:18.618Z,97855.41
2022-08-22T15:48:57.106Z,97861.50
2022-08-22T15:51:39.916Z,97846.72
2022-08-22T15:54:24.193Z,97851.19
2022-08-22T15:57:06.457Z,97864.72
2022-08-22T15:59:47.726Z,97863.34
2022-08-22T16:02:34.935Z,97862.84
2022-08-22T16:05:26.245Z,97869.13
2022-08-22T16:08:02.932Z,97861.81
2022-08-22T16:10:37.746Z,97857.56
2022-08-22T16:13:16.072Z,97862.06
2022-08-22T16:16:00.522Z,97860.03
2022-08-22T16:19:05.310Z,97859.88
2022-08-22T16:22:10.701Z,97861.97
2022-08-22T16:24:57.672Z,97853.94
2022-08-22T16:27:27.359Z,97857.09
2022-08-22T16:30:07.033Z,97857.31
2022-08-22T16:32:35.108Z,97863.25
2022-08-22T16:35:02.376Z,97859.34
2022-08-22T16:37:47.110Z,97862.22
2022-08-22T16:40:20.479Z,97850.72
2022-08-22T16:43:09.568Z,97860.41
2022-08-22T16:45:39.369Z,97867.41
2022-08-22T16:48:32.387Z,97867.59
2022-08-22T16:51:14.162Z,97873.41
2022-08-22T16:54:10.549Z,97880.78
2022-08-22T16:56:56.890Z,97882.81
2022-08-22T16:59:38.265Z,97879.16
2022-08-22T17:02:32.404Z,97880.44
2022-08-22T17:05:16.905Z,97881.38
2022-08-22T17:07:59.197Z,97895.19
2022-08-22T17:10:49.801Z,97897.31
2022-08-22T17:13:26.556Z,97899.31
2022-08-22T17:16:15.652Z,97907.06
2022-08-22T17:18:50.506Z,97912.28
2022-08-22T17:21:25.847Z,97913.63
2022-08-22T17:24:01.332Z,97928.94
2022-08-22T17:26:41.030Z,97934.44
2022-08-22T17:29:16.069Z,97928.22
2022-08-22T17:31:50.790Z,97932.97
2022-08-22T17:34:34.430Z,97937.72
2022-08-22T17:37:09.164Z,97941.72
2022-08-22T17:39:55.866Z,97950.94
2022-08-22T17:42:39.492Z,97957.47
2022-08-22T17:45:16.573Z,97961.09
2022-08-22T17:47:49.802Z,97965.84
2022-08-22T17:50:25.537Z,97965.28
2022-08-22T17:52:59.976Z,97975.63
2022-08-22T17:55:29.166Z,97984.22
2022-08-22T17:58:01.210Z,97977.84
2022-08-22T18:00:31.596Z,97976.53
2022-08-22T18:03:07.045Z,97981.69
2022-08-22T18:05:39.909Z,97980.94
2022-08-22T18:08:37.360Z,97993.00
2022-08-22T18:11:09.974Z,97995.31
2022-08-22T18:13:42.416Z,97993.00
2022-08-22T18:16:20.185Z,97999.41
2022-08-22T18:18:59.850Z,98004.19
2022-08-22T18:21:32.171Z,98020.25
2022-08-22T18:24:01.609Z,98019.91
2022-08-22T18:26:35.045Z,98020.34
2022-08-22T18:29:10.805Z,98022.66
2022-08-22T18:31:47.917Z,98031.81
2022-08-22T18:34:31.767Z,98028.72
2022-08-22T18:37:04.230Z,98029.03
2022-08-22T18:39:42.624Z,98032.00
2022-08-22T18:42:18.381Z,98031.56
2022-08-22T18:44:45.677Z,98024.63
2022-08-22T18:47:16.828Z,98029.34
2022-08-22T18:49:54.342Z,98034.84
2022-08-22T18:52:34.511Z,98038.44
2022-08-22T18:55:40.122Z,98036.47
2022-08-22T18:58:31.147Z,98040.19
2022-08-22T19:01:08.818Z,98051.16
2022-08-22T19:03:49.702Z,98053.22
2022-08-22T19:06:54.758Z,98050.03
2022-08-22T19:09:47.393Z,98050.53
2022-08-22T19:12:35.605Z,98044.25
2022-08-22T19:15:28.728Z,98047.06
2022-08-22T19:18:18.094Z,98053.66
2022-08-22T19:21:37.680Z,98043.28
2022-08-22T19:24:09.679Z,98040.09
2022-08-22T19:26:43.250Z,98035.34
2022-08-22T19:29:47.535Z,98047.50
2022-08-22T19:32:48.239Z,98048.97
2022-08-22T19:35:20.253Z,98071.81
2022-08-22T19:37:53.094Z,98073.47
2022-08-22T19:40:50.273Z,98077.00
2022-08-22T19:43:37.161Z,98074.72
2022-08-22T19:46:08.433Z,98069.19
2022-08-22T19:48:45.697Z,98080.47
2022-08-22T19:51:25.054Z,98087.13
2022-08-22T19:54:16.247Z,98082.97
2022-08-22T19:57:01.092Z,98074.44
2022-08-22T19:59:40.790Z,98079.41
2022-08-22T20:02:31.895Z,98087.47
2022-08-22T20:05:27.684Z,98085.47
2022-08-22T20:08:07.498Z,98081.75
2022-08-22T20:10:42.825Z,98085.47
2022-08-22T20:13:20.827Z,98090.91
2022-08-22T20:16:16.783Z,98092.63
2022-08-22T20:19:13.301Z,98089.81
2022-08-22T20:21:46.081Z,98102.66
2022-08-22T20:24:16.429Z,98107.00
2022-08-22T20:27:12.106Z,98106.22
2022-08-22T20:29:42.013Z,98107.63
2022-08-22T20:32:09.371Z,98092.94
2022-08-22T20:34:39.497Z,98092.03
2022-08-22T20:37:29.553Z,98093.25
2022-08-22T20:40:00.982Z,98086.16
2022-08-22T20:42:33.330Z,98076.88
2022-08-22T20:45:12.038Z,98084.88
2022-08-22T20:47:41.177Z,98087.50
2022-08-22T20:50:12.027Z,98076.69
2022-08-22T20:52:51.833Z,98071.28
2022-08-22T20:55:27.350Z,98092.31
2022-08-22T20:58:01.010Z,98101.91
2022-08-22T21:00:35.655Z,98096.78
2022-08-22T21:03:06.835Z,98096.34
2022-08-22T21:05:38.599Z,98081.63
2022-08-22T21:08:10.840Z,98081.50
2022-08-22T21:10:58.039Z,98068.06
2022-08-22T21:13:27.073Z,98070.06
2022-08-22T21:15:57.861Z,98070.06
2022-08-22T21:18:28.805Z,98056.03
2022-08-22T21:21:07.051Z,98056.78
2022-08-22T21:23:38.464Z,98061.72
2022-08-22T21:26:08.499Z,98061.28
2022-08-22T21:28:39.852Z,98058.16
2022-08-22T21:31:14.799Z,98057.25
2022-08-22T21:33:45.030Z,98054.63
2022-08-22T21:36:16.831Z,98061.50
2022-08-22T21:38:50.836Z,98069.22
2022-08-22T21:41:25.179Z,98063.84
2022-08-22T21:43:53.955Z,98063.53
2022-08-22T21:46:28.816Z,98048.53
2022-08-22T21:48:59.897Z,98054.56
2022-08-22T21:51:40.713Z,98054.34
2022-08-22T21:54:33.680Z,98062.06
2022-08-22T21:57:16.396Z,98045.34
2022-08-22T21:59:52.068Z,98041.13
2022-08-22T22:02:35.314Z,98034.94
2022-08-22T22:05:08.170Z,98034.31
2022-08-22T22:07:37.457Z,98039.00
2022-08-22T22:10:08.328Z,98043.16
2022-08-22T22:12:35.680Z,98049.97
2022-08-22T22:15:03.803Z,98045.59
2022-08-22T22:17:32.354Z,98038.34
2022-08-22T22:19:59.609Z,98033.88
2022-08-22T22:22:26.911Z,98027.53
2022-08-22T22:24:54.209Z,98015.66
2022-08-22T22:27:21.481Z,98012.47
2022-08-22T22:29:48.801Z,98012.47
2022-08-22T22:32:15.962Z,98016.47
2022-08-22T22:34:44.600Z,98015.81
2022-08-22T22:37:15.541Z,98017.97
2022-08-22T22:39:43.082Z,98015.94
2022-08-22T22:42:10.298Z,98024.41
2022-08-22T22:44:37.555Z,98022.72
2022-08-22T22:47:05.054Z,98017.00
2022-08-22T22:49:33.005Z,98011.25
2022-08-22T22:52:02.038Z,98010.81
2022-08-22T22:54:30.622Z,98007.25
2022-08-22T22:57:01.357Z,98001.38
2022-08-22T22:59:29.013Z,98001.78
2022-08-22T23:02:02.624Z,98003.94
2022-08-22T23:04:31.542Z,98001.00
2022-08-22T23:06:58.990Z,98008.81
2022-08-22T23:09:38.080Z,98007.09
2022-08-22T23:12:12.517Z,98017.97
2022-08-22T23:14:39.750Z,98015.28
2022-08-22T23:17:07.125Z,98015.22
2022-08-22T23:19:35.005Z,98018.63
2022-08-22T23:22:02.198Z,98016.50
2022-08-22T23:24:31.941Z,98025.41
2022-08-22T23:26:59.546Z,98027.44
2022-08-22T23:29:27.151Z,98024.81
2022-08-22T23:31:57.333Z,98031.63
2022-08-22T23:34:27.439Z,98031.91
2022-08-22T23:36:58.258Z,98033.75
2022-08-22T23:39:27.113Z,98035.28
2022-08-22T23:41:55.971Z,98041.59
2022-08-22T23:44:26.156Z,98050.06
2022-08-22T23:46:53.697Z,98038.78
2022-08-22T23:49:21.303Z,98040.16
2022-08-22T23:51:49.430Z,98036.00
2022-08-22T23:54:17.875Z,98028.16
2022-08-22T23:56:47.010Z,98029.53
2022-08-22T23:59:17.682Z,98025.03
